createdAt,value
2022-10-02T00:00:09.589Z,97.29
2022-10-02T00:02:55.619Z,96.37
2022-10-02T00:05:42.511Z,97.74
2022-10-02T00:08:42.410Z,98.75
2022-10-02T00:11:18.588Z,97.98
2022-10-02T00:14:02.784Z,97.55
2022-10-02T00:16:39.572Z,98.01
2022-10-02T00:19:11.473Z,98.02
2022-10-02T00:21:58.948Z,97.93
2022-10-02T00:24:41.391Z,95.99
2022-10-02T00:27:22.400Z,96.61
2022-10-02T00:29:54.086Z,96.73
2022-10-02T00:32:46.077Z,98.68
2022-10-02T00:35:46.244Z,99.48
2022-10-02T00:38:34.737Z,98.91
2022-10-02T00:41:17.524Z,97.06
2022-10-02T00:44:12.373Z,98.80
2022-10-02T00:46:49.703Z,100.00
2022-10-02T00:49:26.279Z,99.82
2022-10-02T00:52:14.783Z,99.65
2022-10-02T00:55:04.165Z,98.00
2022-10-02T00:57:45.625Z,98.41
2022-10-02T01:00:18.797Z,99.05
2022-10-02T01:03:04.394Z,98.34
2022-10-02T01:05:34.300Z,100.00
2022-10-02T01:08:02.381Z,100.00
2022-10-02T01:10:30.402Z,100.00
2022-10-02T01:12:58.879Z,100.00
2022-10-02T01:15:37.592Z,100.00
2022-10-02T01:18:07.417Z,100.00
2022-10-02T01:20:42.329Z,100.00
2022-10-02T01:23:24.995Z,100.00
2022-10-02T01:25:52.474Z,100.00
2022-10-02T01:28:20.351Z,100.00
2022-10-02T01:30:51.479Z,100.00
2022-10-02T01:33:19.662Z,100.00
2022-10-02T01:35:47.903Z,100.00
2022-10-02T01:38:20.473Z,100.00
2022-10-02T01:40:47.798Z,100.00
2022-10-02T01:43:20.804Z,100.00
2022-10-02T01:45:48.110Z,100.00
2022-10-02T01:48:30.557Z,100.00
2022-10-02T01:51:30.599Z,100.00
2022-10-02T01:54:21.345Z,100.00
2022-10-02T01:57:04.292Z,100.00
2022-10-02T01:59:31.649Z,100.00
2022-10-02T02:02:07.838Z,100.00
2022-10-02T02:04:54.414Z,100.00
2022-10-02T02:07:28.261Z,100.00
2022-10-02T02:10:02.445Z,100.00
2022-10-02T02:12:41.903Z,100.00
2022-10-02T02:15:36.738Z,100.00
2022-10-02T02:18:10.520Z,99.66
2022-10-02T02:20:50.947Z,98.12
2022-10-02T02:23:22.362Z,97.62
2022-10-02T02:25:56.854Z,98.15
2022-10-02T02:28:26.297Z,99.88
2022-10-02T02:30:55.856Z,100.00
2022-10-02T02:33:44.799Z,100.00
2022-10-02T02:36:18.159Z,100.00
2022-10-02T02:38:51.434Z,100.00
2022-10-02T02:41:28.765Z,100.00
2022-10-02T02:44:01.774Z,100.00
2022-10-02T02:46:59.512Z,100.00
2022-10-02T02:49:30.296Z,100.00
2022-10-02T02:52:01.517Z,100.00
2022-10-02T02:54:46.519Z,100.00
2022-10-02T02:57:16.239Z,100.00
2022-10-02T02:59:49.232Z,100.00
2022-10-02T03:02:16.685Z,100.00
2022-10-02T03:04:44.081Z,100.00
2022-10-02T03:07:15.998Z,100.00
2022-10-02T03:10:12.753Z,100.00
2022-10-02T03:13:09.425Z,100.00
2022-10-02T03:16:01.734Z,100.00
2022-10-02T03:18:43.489Z,100.00
2022-10-02T03:21:39.837Z,100.00
2022-10-02T03:24:19.861Z,100.00
2022-10-02T03:26:55.117Z,100.00
2022-10-02T03:29:35.763Z,100.00
2022-10-02T03:32:05.941Z,100.00
2022-10-02T03:34:34.443Z,100.00
2022-10-02T03:37:05.142Z,100.00
2022-10-02T03:39:32.469Z,100.00
2022-10-02T03:42:00.974Z,100.00
2022-10-02T03:44:28.328Z,100.00
2022-10-02T03:46:55.717Z,100.00
2022-10-02T03:49:23.111Z,100.00
2022-10-02T03:51:50.447Z,100.00
2022-10-02T03:54:20.863Z,100.00
2022-10-02T03:56:58.892Z,100.00
2022-10-02T03:59:33.901Z,100.00
2022-10-02T04:02:06.294Z,100.00
2022-10-02T04:04:48.537Z,100.00
2022-10-02T04:07:19.402Z,100.00
2022-10-02T04:10:16.464Z,100.00
2022-10-02T04:12:49.438Z,100.00
2022-10-02T04:15:23.322Z,100.00
2022-10-02T04:17:59.766Z,100.00
2022-10-02T04:20:35.402Z,100.00
2022-10-02T04:23:17.774Z,100.00
2022-10-02T04:25:50.858Z,100.00
2022-10-02T04:28:26.545Z,100.00
2022-10-02T04:30:54.262Z,100.00
2022-10-02T04:33:24.687Z,100.00
2022-10-02T04:36:03.999Z,100.00
2022-10-02T04:38:59.258Z,100.00
2022-10-02T04:41:38.315Z,100.00
2022-10-02T04:44:35.975Z,100.00
2022-10-02T04:47:20.856Z,100.00
2022-10-02T04:50:00.325Z,100.00
2022-10-02T04:52:34.694Z,100.00
2022-10-02T04:55:36.419Z,100.00
2022-10-02T04:58:27.357Z,100.00
2022-10-02T05:01:12.844Z,100.00
2022-10-02T05:03:49.260Z,100.00
2022-10-02T05:06:42.343Z,100.00
2022-10-02T05:09:13.761Z,100.00
2022-10-02T05:11:52.862Z,100.00
2022-10-02T05:14:26.234Z,100.00
2022-10-02T05:17:03.627Z,100.00
2022-10-02T05:19:43.159Z,100.00
2022-10-02T05:22:39.494Z,100.00
2022-10-02T05:25:24.835Z,100.00
2022-10-02T05:28:08.831Z,100.00
2022-10-02T05:31:19.519Z,100.00
2022-10-02T05:34:29.258Z,100.00
2022-10-02T05:36:56.526Z,100.00
2022-10-02T05:39:48.636Z,100.00
2022-10-02T05:42:26.534Z,100.00
2022-10-02T05:45:11.707Z,100.00
2022-10-02T05:47:42.625Z,100.00
2022-10-02T05:50:26.398Z,100.00
2022-10-02T05:52:56.248Z,100.00
2022-10-02T05:55:48.211Z,100.00
2022-10-02T05:58:19.735Z,100.00
2022-10-02T06:00:52.280Z,100.00
2022-10-02T06:03:31.020Z,100.00
2022-10-02T06:06:11.201Z,100.00
2022-10-02T06:08:48.704Z,100.00
2022-10-02T06:11:22.297Z,100.00
2022-10-02T06:14:12.936Z,100.00
2022-10-02T06:16:57.383Z,100.00
2022-10-02T06:19:30.628Z,100.00
2022-10-02T06:22:07.899Z,100.00
2022-10-02T06:24:46.492Z,100.00
2022-10-02T06:27:44.170Z,100.00
2022-10-02T06:30:17.409Z,100.00
2022-10-02T06:33:06.820Z,100.00
2022-10-02T06:35:54.370Z,100.00
2022-10-02T06:38:40.297Z,99.35
2022-10-02T06:41:38.279Z,99.60
2022-10-02T06:44:17.935Z,99.87
2022-10-02T06:47:01.446Z,99.86
2022-10-02T06:49:40.561Z,99.59
2022-10-02T06:52:26.247Z,99.64
2022-10-02T06:55:15.287Z,97.72
2022-10-02T06:58:03.609Z,94.12
2022-10-02T07:00:37.001Z,91.99
2022-10-02T07:03:23.502Z,90.01
2022-10-02T07:06:01.789Z,89.81
2022-10-02T07:08:59.336Z,88.94
2022-10-02T07:12:08.370Z,87.94
2022-10-02T07:14:47.816Z,88.44
2022-10-02T07:17:44.095Z,88.22
2022-10-02T07:20:34.126Z,85.52
2022-10-02T07:23:35.174Z,82.66
2022-10-02T07:26:23.907Z,79.46
2022-10-02T07:29:20.502Z,72.73
2022-10-02T07:31:50.787Z,72.20
2022-10-02T07:34:43.934Z,75.65
2022-10-02T07:37:30.026Z,76.54
2022-10-02T07:40:18.596Z,72.56
2022-10-02T07:42:51.912Z,69.98
2022-10-02T07:45:41.999Z,62.31
2022-10-02T07:48:24.306Z,55.74
2022-10-02T07:51:04.566Z,53.93
2022-10-02T07:53:40.854Z,53.73
2022-10-02T07:56:20.115Z,50.88
2022-10-02T07:58:54.787Z,46.50
2022-10-02T08:01:26.149Z,45.63
2022-10-02T08:04:01.201Z,44.95
2022-10-02T08:06:29.608Z,43.32
2022-10-02T08:09:03.311Z,43.14
2022-10-02T08:11:43.290Z,47.07
2022-10-02T08:14:26.947Z,48.87
2022-10-02T08:16:57.349Z,48.21
2022-10-02T08:19:27.932Z,48.69
2022-10-02T08:22:10.091Z,48.50
2022-10-02T08:24:59.045Z,45.25
2022-10-02T08:27:47.790Z,43.16
2022-10-02T08:30:15.754Z,42.12
2022-10-02T08:32:44.006Z,43.08
2022-10-02T08:35:13.117Z,42.33
2022-10-02T08:38:12.827Z,40.47
2022-10-02T08:41:05.085Z,40.44
2022-10-02T08:43:41.694Z,39.68
2022-10-02T08:46:47.603Z,39.10
2022-10-02T08:49:35.555Z,40.71
2022-10-02T08:52:41.007Z,39.48
2022-10-02T08:55:52.815Z,40.78
2022-10-02T08:58:22.861Z,39.80
2022-10-02T09:01:26.414Z,38.88
2022-10-02T09:04:14.195Z,39.85
2022-10-02T09:07:15.615Z,39.54
2022-10-02T09:10:13.647Z,39.53
2022-10-02T09:12:44.222Z,38.36
2022-10-02T09:15:16.140Z,38.97
2022-10-02T09:18:01.656Z,39.51
2022-10-02T09:20:51.254Z,39.28
2022-10-02T09:23:40.821Z,39.93
2022-10-02T09:26:27.027Z,37.91
2022-10-02T09:29:18.091Z,41.01
2022-10-02T09:32:05.260Z,38.69
2022-10-02T09:34:54.369Z,38.37
2022-10-02T09:37:50.949Z,38.26
2022-10-02T09:40:33.030Z,37.97
2022-10-02T09:43:15.471Z,41.08
2022-10-02T09:45:51.706Z,39.90
2022-10-02T09:48:49.764Z,41.60
2022-10-02T09:51:47.610Z,39.58
2022-10-02T09:54:36.611Z,41.45
2022-10-02T09:57:22.363Z,41.39
2022-10-02T10:00:26.713Z,42.58
2022-10-02T10:03:25.142Z,42.40
2022-10-02T10:06:30.130Z,42.48
2022-10-02T10:09:19.310Z,44.52
2022-10-02T10:12:20.519Z,41.95
2022-10-02T10:15:20.037Z,41.58
2022-10-02T10:18:10.394Z,42.39
2022-10-02T10:21:31.705Z,45.34
2022-10-02T10:24:19.015Z,46.74
2022-10-02T10:27:20.187Z,45.51
2022-10-02T10:30:21.407Z,48.32
2022-10-02T10:33:16.537Z,46.08
2022-10-02T10:36:46.898Z,47.08
2022-10-02T10:39:38.991Z,46.42
2022-10-02T10:42:56.054Z,47.43
2022-10-02T10:45:38.942Z,47.74
2022-10-02T10:48:32.539Z,45.63
2022-10-02T10:51:35.939Z,47.44
2022-10-02T10:54:15.711Z,45.19
2022-10-02T10:57:11.333Z,45.43
2022-10-02T11:00:01.070Z,45.99
2022-10-02T11:02:38.819Z,46.81
2022-10-02T11:05:26.381Z,47.25
2022-10-02T11:08:09.643Z,46.91
2022-10-02T11:10:52.967Z,46.40
2022-10-02T11:13:35.347Z,49.08
2022-10-02T11:16:28.117Z,47.54
2022-10-02T11:19:26.597Z,47.52
2022-10-02T11:22:35.692Z,48.20
2022-10-02T11:25:12.871Z,52.01
2022-10-02T11:28:08.221Z,50.21
2022-10-02T11:31:09.700Z,51.19
2022-10-02T11:33:56.440Z,50.54
2022-10-02T11:36:52.637Z,50.03
2022-10-02T11:39:49.943Z,52.06
2022-10-02T11:42:54.646Z,49.92
2022-10-02T11:45:51.698Z,52.11
2022-10-02T11:49:00.999Z,50.00
2022-10-02T11:51:41.706Z,50.37
2022-10-02T11:54:35.621Z,49.33
2022-10-02T11:57:29.756Z,49.26
2022-10-02T12:00:04.717Z,49.71
2022-10-02T12:02:55.523Z,50.30
2022-10-02T12:05:46.086Z,50.19
2022-10-02T12:08:34.379Z,49.84
2022-10-02T12:11:42.142Z,50.27
2022-10-02T12:14:27.866Z,51.71
2022-10-02T12:17:22.531Z,50.90
2022-10-02T12:20:23.411Z,50.06
2022-10-02T12:23:52.126Z,47.38
2022-10-02T12:27:13.100Z,49.89
2022-10-02T12:29:46.253Z,48.97
2022-10-02T12:32:41.431Z,47.88
2022-10-02T12:35:27.704Z,48.97
2022-10-02T12:38:00.975Z,48.75
2022-10-02T12:40:43.747Z,46.80
2022-10-02T12:43:17.459Z,48.49
2022-10-02T12:46:05.191Z,49.17
2022-10-02T12:48:38.845Z,48.90
2022-10-02T12:51:24.120Z,48.63
2022-10-02T12:54:26.512Z,48.13
2022-10-02T12:56:59.962Z,50.37
2022-10-02T12:59:59.046Z,48.88
2022-10-02T13:03:11.674Z,48.22
2022-10-02T13:05:51.383Z,47.95
2022-10-02T13:08:24.719Z,47.54
2022-10-02T13:11:21.105Z,47.81
2022-10-02T13:14:03.629Z,48.39
2022-10-02T13:16:31.123Z,47.10
2022-10-02T13:19:13.595Z,47.92
2022-10-02T13:22:10.075Z,48.16
2022-10-02T13:24:49.653Z,48.24
2022-10-02T13:27:18.778Z,48.92
2022-10-02T13:30:07.886Z,48.27
2022-10-02T13:32:41.196Z,47.45
2022-10-02T13:35:21.004Z,48.68
2022-10-02T13:38:01.878Z,47.91
2022-10-02T13:40:58.367Z,48.08
2022-10-02T13:43:34.558Z,48.26
2022-10-02T13:46:47.486Z,47.84
2022-10-02T13:49:48.950Z,50.12
2022-10-02T13:52:29.294Z,49.18
2022-10-02T13:55:26.282Z,48.45
2022-10-02T13:58:10.874Z,50.44
2022-10-02T14:00:38.174Z,50.62
2022-10-02T14:03:26.587Z,52.07
2022-10-02T14:06:21.823Z,51.68
2022-10-02T14:08:57.898Z,51.58
2022-10-02T14:11:34.445Z,50.63
2022-10-02T14:14:14.116Z,51.80
2022-10-02T14:17:02.312Z,51.52
2022-10-02T14:19:44.432Z,52.76
2022-10-02T14:22:17.497Z,51.01
2022-10-02T14:25:17.286Z,52.10
2022-10-02T14:27:50.809Z,51.59
2022-10-02T14:30:22.476Z,51.62
2022-10-02T14:33:01.591Z,51.65
2022-10-02T14:35:43.760Z,52.29
2022-10-02T14:38:23.331Z,53.63
2022-10-02T14:40:55.776Z,53.25
2022-10-02T14:44:07.382Z,53.42
2022-10-02T14:47:01.287Z,53.43
2022-10-02T14:49:43.923Z,53.69
2022-10-02T14:52:35.796Z,54.27
2022-10-02T14:55:15.820Z,54.56
2022-10-02T14:58:15.231Z,55.35
2022-10-02T15:01:02.702Z,56.08
2022-10-02T15:03:52.052Z,56.31
2022-10-02T15:07:01.559Z,54.79
2022-10-02T15:09:32.308Z,55.99
2022-10-02T15:12:10.881Z,54.75
2022-10-02T15:14:43.594Z,54.58
2022-10-02T15:17:47.747Z,53.95
2022-10-02T15:20:24.127Z,53.09
2022-10-02T15:22:57.862Z,52.65
2022-10-02T15:25:53.454Z,53.01
2022-10-02T15:28:40.231Z,54.88
2022-10-02T15:31:18.030Z,54.69
2022-10-02T15:34:18.715Z,55.24
2022-10-02T15:36:57.190Z,55.51
2022-10-02T15:39:33.651Z,56.47
2022-10-02T15:42:10.217Z,55.17
2022-10-02T15:45:00.332Z,54.94
2022-10-02T15:47:51.655Z,57.32
2022-10-02T15:50:34.334Z,55.96
2022-10-02T15:53:17.208Z,56.66
2022-10-02T15:55:50.730Z,58.61
2022-10-02T15:58:27.967Z,57.86
2022-10-02T16:01:01.118Z,55.94
2022-10-02T16:03:38.212Z,55.44
2022-10-02T16:06:12.752Z,55.64
2022-10-02T16:09:09.357Z,55.81
2022-10-02T16:12:01.524Z,58.57
2022-10-02T16:14:38.791Z,59.22
2022-10-02T16:17:21.132Z,58.20
2022-10-02T16:20:07.114Z,59.63
2022-10-02T16:22:44.171Z,59.38
2022-10-02T16:25:27.215Z,60.94
2022-10-02T16:28:27.320Z,59.86
2022-10-02T16:31:26.172Z,60.58
2022-10-02T16:34:19.935Z,60.56
2022-10-02T16:37:09.131Z,61.64
2022-10-02T16:39:47.643Z,62.91
2022-10-02T16:42:27.119Z,60.19
2022-10-02T16:45:04.882Z,59.82
2022-10-02T16:48:02.305Z,61.13
2022-10-02T16:50:48.835Z,62.66
2022-10-02T16:53:28.662Z,63.82
2022-10-02T16:56:06.770Z,64.45
2022-10-02T16:58:47.483Z,65.29
2022-10-02T17:01:22.435Z,65.67
2022-10-02T17:04:28.177Z,66.41
2022-10-02T17:07:14.345Z,67.58
2022-10-02T17:10:07.947Z,68.00
2022-10-02T17:12:46.894Z,68.04
2022-10-02T17:15:27.277Z,68.56
2022-10-02T17:18:15.972Z,69.15
2022-10-02T17:21:02.952Z,70.95
2022-10-02T17:24:19.801Z,72.22
2022-10-02T17:26:53.645Z,70.92
2022-10-02T17:29:39.097Z,70.58
2022-10-02T17:32:09.342Z,70.58
2022-10-02T17:34:49.880Z,71.34
2022-10-02T17:37:17.366Z,72.02
2022-10-02T17:40:03.305Z,73.17
2022-10-02T17:42:51.976Z,72.95
2022-10-02T17:45:45.728Z,73.67
2022-10-02T17:48:21.959Z,73.77
2022-10-02T17:50:55.870Z,74.46
2022-10-02T17:54:02.386Z,75.35
2022-10-02T17:56:32.667Z,75.35
2022-10-02T17:59:17.209Z,75.54
2022-10-02T18:02:07.959Z,76.00
2022-10-02T18:04:49.790Z,77.49
2022-10-02T18:07:41.624Z,77.21
2022-10-02T18:10:41.730Z,79.19
2022-10-02T18:13:21.168Z,79.36
2022-10-02T18:16:14.259Z,78.99
2022-10-02T18:19:16.047Z,80.47
2022-10-02T18:21:56.947Z,81.73
2022-10-02T18:24:26.870Z,83.32
2022-10-02T18:27:03.627Z,84.24
2022-10-02T18:29:49.298Z,83.71
2022-10-02T18:32:31.620Z,83.37
2022-10-02T18:35:08.481Z,84.15
2022-10-02T18:37:50.730Z,84.57
2022-10-02T18:40:22.966Z,84.30
2022-10-02T18:43:21.935Z,84.53
2022-10-02T18:46:27.380Z,83.93
2022-10-02T18:49:26.040Z,83.73
2022-10-02T18:52:17.446Z,83.16
2022-10-02T18:55:10.461Z,83.59
2022-10-02T18:57:43.588Z,83.86
2022-10-02T19:00:17.208Z,84.42
2022-10-02T19:03:18.458Z,84.54
2022-10-02T19:06:11.512Z,84.84
2022-10-02T19:09:11.172Z,84.93
2022-10-02T19:11:48.380Z,84.27
2022-10-02T19:14:25.814Z,83.61
2022-10-02T19:16:59.416Z,83.89
2022-10-02T19:19:28.319Z,84.59
2022-10-02T19:22:01.354Z,84.03
2022-10-02T19:24:34.345Z,83.88
2022-10-02T19:27:09.882Z,83.06
2022-10-02T19:29:41.889Z,82.88
2022-10-02T19:32:18.425Z,83.48
2022-10-02T19:34:50.958Z,83.84
2022-10-02T19:37:18.998Z,83.93
2022-10-02T19:39:56.384Z,84.04
2022-10-02T19:42:29.450Z,84.07
2022-10-02T19:45:05.402Z,83.74
2022-10-02T19:48:06.894Z,83.74
2022-10-02T19:50:40.435Z,83.51
2022-10-02T19:53:23.025Z,84.16
2022-10-02T19:56:01.582Z,83.39
2022-10-02T19:58:59.079Z,83.26
2022-10-02T20:01:30.139Z,84.10
2022-10-02T20:04:00.981Z,84.12
2022-10-02T20:06:35.122Z,84.27
2022-10-02T20:09:16.878Z,84.48
2022-10-02T20:11:47.829Z,84.74
2022-10-02T20:14:17.927Z,84.18
2022-10-02T20:17:04.457Z,85.21
2022-10-02T20:19:36.056Z,86.02
2022-10-02T20:22:34.398Z,86.33
2022-10-02T20:25:18.977Z,86.14
2022-10-02T20:27:53.112Z,85.41
2022-10-02T20:30:22.806Z,86.67
2022-10-02T20:33:03.084Z,86.47
2022-10-02T20:35:44.951Z,86.24
2022-10-02T20:38:24.150Z,85.94
2022-10-02T20:40:54.582Z,87.09
2022-10-02T20:43:38.922Z,86.83
2022-10-02T20:46:33.671Z,86.12
2022-10-02T20:49:28.417Z,86.53
2022-10-02T20:52:26.573Z,87.46
2022-10-02T20:55:12.638Z,88.03
2022-10-02T20:58:01.408Z,88.46
2022-10-02T21:00:53.821Z,90.22
2022-10-02T21:03:24.740Z,90.96
2022-10-02T21:06:14.473Z,91.65
2022-10-02T21:09:20.433Z,91.14
2022-10-02T21:12:12.207Z,91.46
2022-10-02T21:14:54.601Z,91.63
2022-10-02T21:18:01.210Z,91.30
2022-10-02T21:20:49.708Z,92.10
2022-10-02T21:23:47.064Z,92.98
2022-10-02T21:26:51.637Z,93.34
2022-10-02T21:29:47.416Z,94.02
2022-10-02T21:32:41.026Z,94.21
2022-10-02T21:35:31.931Z,94.06
2022-10-02T21:38:36.672Z,94.21
2022-10-02T21:41:33.522Z,94.38
2022-10-02T21:44:19.731Z,93.54
2022-10-02T21:47:12.424Z,93.25
2022-10-02T21:49:56.250Z,92.68
2022-10-02T21:52:57.171Z,93.41
2022-10-02T21:55:33.455Z,93.96
2022-10-02T21:58:19.263Z,93.27
2022-10-02T22:01:15.885Z,93.21
2022-10-02T22:04:13.863Z,92.55
2022-10-02T22:07:22.616Z,91.23
2022-10-02T22:09:54.398Z,91.17
2022-10-02T22:12:27.832Z,90.15
2022-10-02T22:15:29.629Z,90.60
2022-10-02T22:18:02.757Z,90.88
2022-10-02T22:20:59.784Z,90.46
2022-10-02T22:23:49.918Z,90.48
2022-10-02T22:26:38.469Z,90.10
2022-10-02T22:29:27.057Z,91.03
2022-10-02T22:32:36.275Z,91.20
2022-10-02T22:35:29.051Z,91.40
2022-10-02T22:38:34.295Z,90.81
2022-10-02T22:41:29.914Z,91.39
2022-10-02T22:44:02.007Z,92.49
2022-10-02T22:46:51.002Z,92.39
2022-10-02T22:49:46.375Z,92.26
2022-10-02T22:52:37.862Z,92.33
2022-10-02T22:55:23.789Z,92.75
2022-10-02T22:58:02.555Z,93.05
2022-10-02T23:00:38.302Z,95.09
2022-10-02T23:03:37.964Z,93.86
2022-10-02T23:06:12.621Z,94.08
2022-10-02T23:08:42.939Z,92.73
2022-10-02T23:11:17.539Z,93.35
2022-10-02T23:13:59.865Z,93.54
2022-10-02T23:16:41.034Z,93.53
2022-10-02T23:19:14.102Z,93.94
2022-10-02T23:21:47.907Z,94.69
2022-10-02T23:24:28.481Z,94.85
2022-10-02T23:27:09.543Z,95.01
2022-10-02T23:30:01.080Z,94.74
2022-10-02T23:33:02.849Z,94.30
2022-10-02T23:35:49.915Z,94.92
2022-10-02T23:38:26.305Z,94.96
2022-10-02T23:41:22.835Z,96.44
2022-10-02T23:44:28.592Z,95.46
2022-10-02T23:46:55.947Z,95.22
2022-10-02T23:49:26.864Z,95.89
2022-10-02T23:51:54.201Z,96.53
2022-10-02T23:54:53.626Z,96.66
2022-10-02T23:57:29.490Z,96.16
